createdAt,value
2018-01-21T00:00:02.778Z,83.33
2018-01-21T00:01:09.892Z,83.37
2018-01-21T00:02:16.893Z,83.46
2018-01-21T00:03:23.865Z,83.52
2018-01-21T00:04:30.720Z,83.57
2018-01-21T00:05:37.635Z,83.55
2018-01-21T00:06:44.520Z,83.50
2018-01-21T00:07:51.475Z,83.52
2018-01-21T00:08:58.474Z,83.52
2018-01-21T00:10:05.282Z,83.51
2018-01-21T00:11:12.104Z,83.55
2018-01-21T00:12:18.847Z,83.55
2018-01-21T00:13:25.583Z,83.55
2018-01-21T00:14:32.562Z,83.59
2018-01-21T00:15:39.403Z,83.57
2018-01-21T00:16:46.247Z,83.56
2018-01-21T00:17:52.960Z,83.53
2018-01-21T00:18:59.727Z,83.55
2018-01-21T00:20:06.564Z,83.57
2018-01-21T00:21:13.319Z,83.55
2018-01-21T00:22:20.065Z,83.58
2018-01-21T00:23:26.907Z,83.55
2018-01-21T00:24:33.726Z,83.57
2018-01-21T00:25:40.563Z,83.58
2018-01-21T00:26:47.283Z,83.58
2018-01-21T00:27:54.043Z,83.58
2018-01-21T00:29:00.804Z,83.62
2018-01-21T00:30:07.553Z,83.59
2018-01-21T00:31:14.419Z,83.61
2018-01-21T00:32:21.246Z,83.60
2018-01-21T00:33:27.980Z,83.62
2018-01-21T00:34:34.743Z,83.62
2018-01-21T00:35:41.495Z,83.60
2018-01-21T00:36:48.427Z,83.63
2018-01-21T00:37:55.155Z,83.64
2018-01-21T00:39:01.895Z,83.65
2018-01-21T00:40:08.843Z,83.65
2018-01-21T00:41:15.628Z,83.67
2018-01-21T00:42:22.372Z,83.68
2018-01-21T00:43:29.212Z,83.70
2018-01-21T00:44:36.132Z,83.71
2018-01-21T00:45:43.023Z,83.75
2018-01-21T00:46:49.945Z,83.73
2018-01-21T00:49:07.101Z,83.75
2018-01-21T00:50:10.904Z,83.75
2018-01-21T00:51:19.259Z,83.78
2018-01-21T00:52:24.768Z,83.81
2018-01-21T00:53:38.990Z,83.85
2018-01-21T00:54:47.160Z,83.91
2018-01-21T00:55:45.150Z,83.93
2018-01-21T00:56:51.853Z,83.94
2018-01-21T00:57:58.993Z,83.94
2018-01-21T00:59:06.435Z,83.95
2018-01-21T01:00:12.883Z,83.97
2018-01-21T01:01:19.836Z,83.93
2018-01-21T01:02:26.840Z,83.95
2018-01-21T01:03:33.732Z,83.95
2018-01-21T01:04:40.540Z,83.94
2018-01-21T01:05:47.344Z,83.98
2018-01-21T01:06:54.296Z,83.99
2018-01-21T01:08:01.132Z,84.00
2018-01-21T01:09:08.124Z,84.02
2018-01-21T01:10:14.936Z,84.04
2018-01-21T01:11:21.945Z,84.05
2018-01-21T01:12:28.788Z,84.06
2018-01-21T01:13:35.680Z,84.09
2018-01-21T01:14:42.482Z,84.12
2018-01-21T01:15:49.477Z,84.13
2018-01-21T01:16:56.328Z,84.13
2018-01-21T01:18:03.117Z,84.14
2018-01-21T01:19:09.916Z,84.15
2018-01-21T01:20:16.704Z,84.14
2018-01-21T01:21:23.622Z,84.15
2018-01-21T01:22:30.331Z,84.13
2018-01-21T01:23:37.037Z,84.14
2018-01-21T01:24:43.890Z,84.13
2018-01-21T01:25:50.619Z,84.13
2018-01-21T01:26:57.415Z,84.10
2018-01-21T01:28:04.123Z,84.10
2018-01-21T01:29:10.887Z,84.07
2018-01-21T01:30:17.585Z,84.10
2018-01-21T01:31:24.375Z,84.07
2018-01-21T01:32:31.136Z,84.05
2018-01-21T01:33:37.922Z,84.04
2018-01-21T01:34:44.643Z,84.03
2018-01-21T01:35:51.370Z,84.05
2018-01-21T01:36:58.231Z,84.05
2018-01-21T01:38:04.998Z,84.05
2018-01-21T01:39:11.763Z,84.06
2018-01-21T01:40:18.597Z,84.04
2018-01-21T01:41:25.408Z,84.08
2018-01-21T01:42:32.205Z,84.08
2018-01-21T01:43:39.233Z,84.08
2018-01-21T01:44:46.040Z,84.08
2018-01-21T01:45:52.911Z,84.05
2018-01-21T01:46:59.800Z,84.03
2018-01-21T01:48:06.560Z,84.02
2018-01-21T01:49:13.360Z,84.00
2018-01-21T01:50:20.234Z,83.99
2018-01-21T01:51:27.018Z,83.97
2018-01-21T01:52:33.821Z,83.98
2018-01-21T01:53:40.715Z,83.96
2018-01-21T01:54:47.656Z,83.95
2018-01-21T01:55:54.629Z,83.95
2018-01-21T01:57:01.596Z,83.93
2018-01-21T01:58:08.608Z,83.92
2018-01-21T01:59:15.478Z,83.92
2018-01-21T02:00:22.326Z,83.95
2018-01-21T02:01:29.180Z,83.96
2018-01-21T02:02:36.076Z,83.95
2018-01-21T02:03:42.840Z,83.93
2018-01-21T02:04:50.500Z,83.95
2018-01-21T02:05:56.639Z,83.92
2018-01-21T02:07:03.677Z,83.93
2018-01-21T02:08:10.612Z,83.91
2018-01-21T02:09:17.508Z,83.87
2018-01-21T02:10:24.504Z,83.83
2018-01-21T02:11:31.404Z,83.85
2018-01-21T02:12:38.361Z,83.82
2018-01-21T02:13:45.192Z,83.82
2018-01-21T02:14:52.046Z,83.83
2018-01-21T02:15:58.924Z,83.82
2018-01-21T02:17:05.812Z,83.81
2018-01-21T02:18:12.684Z,83.84
2018-01-21T02:19:19.527Z,83.83
2018-01-21T02:20:26.422Z,83.85
2018-01-21T02:21:33.256Z,83.84
2018-01-21T02:22:40.237Z,83.84
2018-01-21T02:23:47.125Z,83.85
2018-01-21T02:24:53.920Z,83.85
2018-01-21T02:26:00.623Z,83.87
2018-01-21T02:27:07.705Z,83.87
2018-01-21T02:28:15.911Z,83.88
2018-01-21T02:29:21.612Z,83.88
2018-01-21T02:30:28.377Z,83.89
2018-01-21T02:31:35.328Z,83.93
2018-01-21T02:32:42.266Z,83.92
2018-01-21T02:33:49.073Z,83.89
2018-01-21T02:34:56.015Z,83.88
2018-01-21T02:36:02.801Z,83.92
2018-01-21T02:37:09.584Z,83.94
2018-01-21T02:38:16.372Z,83.97
2018-01-21T02:39:23.346Z,83.93
2018-01-21T02:40:30.161Z,83.84
2018-01-21T02:41:37.007Z,83.83
2018-01-21T02:42:43.933Z,83.81
2018-01-21T02:43:53.216Z,83.79
2018-01-21T02:44:57.768Z,83.76
2018-01-21T02:46:04.561Z,83.78
2018-01-21T02:47:11.383Z,83.80
2018-01-21T02:48:18.216Z,83.82
2018-01-21T02:49:25.014Z,83.79
2018-01-21T02:50:31.872Z,83.75
2018-01-21T02:51:38.656Z,83.80
2018-01-21T02:52:45.564Z,83.78
2018-01-21T02:53:52.387Z,83.77
2018-01-21T02:54:59.191Z,83.77
2018-01-21T02:56:06.136Z,83.76
2018-01-21T02:57:12.984Z,83.76
2018-01-21T02:58:19.898Z,83.82
2018-01-21T02:59:31.756Z,83.82
2018-01-21T03:00:33.523Z,83.81
2018-01-21T03:01:40.339Z,83.81
2018-01-21T03:02:48.875Z,83.86
2018-01-21T03:03:54.037Z,83.87
2018-01-21T03:05:00.851Z,83.93
2018-01-21T03:06:07.705Z,84.00
2018-01-21T03:07:14.602Z,83.98
2018-01-21T03:08:21.472Z,84.00
2018-01-21T03:09:28.377Z,84.03
2018-01-21T03:10:35.435Z,84.05
2018-01-21T03:11:42.370Z,84.08
2018-01-21T03:12:49.348Z,84.04
2018-01-21T03:13:56.225Z,84.05
2018-01-21T03:15:03.120Z,84.10
2018-01-21T03:16:10.274Z,84.04
2018-01-21T03:17:17.126Z,84.10
2018-01-21T03:18:23.981Z,84.11
2018-01-21T03:19:30.836Z,84.12
2018-01-21T03:20:37.680Z,84.12
2018-01-21T03:21:44.661Z,84.14
2018-01-21T03:22:51.644Z,84.15
2018-01-21T03:23:58.498Z,84.12
2018-01-21T03:25:05.432Z,84.13
2018-01-21T03:26:12.276Z,84.14
2018-01-21T03:27:19.209Z,84.15
2018-01-21T03:28:26.045Z,84.14
2018-01-21T03:29:32.987Z,84.16
2018-01-21T03:30:39.839Z,84.18
2018-01-21T03:31:46.741Z,84.21
2018-01-21T03:32:53.553Z,84.20
2018-01-21T03:34:00.543Z,84.21
2018-01-21T03:35:07.649Z,84.21
2018-01-21T03:36:14.493Z,84.21
2018-01-21T03:37:21.400Z,84.21
2018-01-21T03:38:28.237Z,84.18
2018-01-21T03:39:35.056Z,84.21
2018-01-21T03:40:41.940Z,84.15
2018-01-21T03:41:48.805Z,84.14
2018-01-21T03:42:55.620Z,84.12
2018-01-21T03:44:02.476Z,84.14
2018-01-21T03:45:09.401Z,84.13
2018-01-21T03:46:16.257Z,84.13
2018-01-21T03:47:23.147Z,84.10
2018-01-21T03:48:29.993Z,84.09
2018-01-21T03:49:36.924Z,84.08
2018-01-21T03:50:43.776Z,84.07
2018-01-21T03:51:50.689Z,84.01
2018-01-21T03:52:57.565Z,84.00
2018-01-21T03:54:04.465Z,84.00
2018-01-21T03:55:11.371Z,84.01
2018-01-21T03:56:18.437Z,83.98
2018-01-21T03:57:25.380Z,83.96
2018-01-21T03:58:32.239Z,83.96
2018-01-21T03:59:39.115Z,83.96
2018-01-21T04:00:45.980Z,83.96
2018-01-21T04:01:53.010Z,83.95
2018-01-21T04:02:59.921Z,83.96
2018-01-21T04:04:06.755Z,83.93
2018-01-21T04:05:13.608Z,83.92
2018-01-21T04:06:20.532Z,83.93
2018-01-21T04:07:27.382Z,83.91
2018-01-21T04:08:34.278Z,83.90
2018-01-21T04:09:41.185Z,83.89
2018-01-21T04:10:48.148Z,83.88
2018-01-21T04:11:55.053Z,83.87
2018-01-21T04:13:01.955Z,83.87
2018-01-21T04:14:08.936Z,83.82
2018-01-21T04:15:15.961Z,83.83
2018-01-21T04:16:22.899Z,83.82
2018-01-21T04:17:30.244Z,83.79
2018-01-21T04:18:36.711Z,83.77
2018-01-21T04:19:43.615Z,83.76
2018-01-21T04:20:50.513Z,83.77
2018-01-21T04:21:57.360Z,83.77
2018-01-21T04:23:04.335Z,83.76
2018-01-21T04:24:11.212Z,83.79
2018-01-21T04:25:18.117Z,83.78
2018-01-21T04:26:25.045Z,83.77
2018-01-21T04:27:31.920Z,83.79
2018-01-21T04:28:38.849Z,83.75
2018-01-21T04:29:45.723Z,83.73
2018-01-21T04:30:52.565Z,83.75
2018-01-21T04:31:59.450Z,83.74
2018-01-21T04:33:06.320Z,83.78
2018-01-21T04:34:13.189Z,83.74
2018-01-21T04:35:20.097Z,83.74
2018-01-21T04:36:26.953Z,83.74
2018-01-21T04:37:33.819Z,83.75
2018-01-21T04:38:40.765Z,83.75
2018-01-21T04:39:47.608Z,83.75
2018-01-21T04:40:54.462Z,83.77
2018-01-21T04:42:01.391Z,83.77
2018-01-21T04:43:08.243Z,83.77
2018-01-21T04:44:15.109Z,83.75
2018-01-21T04:45:21.925Z,83.74
2018-01-21T04:46:28.754Z,83.78
2018-01-21T04:47:35.601Z,83.75
2018-01-21T04:48:42.437Z,83.74
2018-01-21T04:49:49.257Z,83.77
2018-01-21T04:50:56.129Z,83.75
2018-01-21T04:52:02.975Z,83.77
2018-01-21T04:53:09.913Z,83.74
2018-01-21T04:54:16.758Z,83.72
2018-01-21T04:55:23.656Z,83.74
2018-01-21T04:56:30.513Z,83.71
2018-01-21T04:57:37.330Z,83.70
2018-01-21T04:58:44.183Z,83.71
2018-01-21T04:59:51.161Z,83.66
2018-01-21T05:00:57.984Z,83.69
2018-01-21T05:02:04.832Z,83.69
2018-01-21T05:03:11.713Z,83.65
2018-01-21T05:04:18.573Z,83.64
2018-01-21T05:05:25.413Z,83.61
2018-01-21T05:06:32.272Z,83.61
2018-01-21T05:07:39.130Z,83.58
2018-01-21T05:08:46.466Z,83.58
2018-01-21T05:09:52.895Z,83.57
2018-01-21T05:10:59.752Z,83.55
2018-01-21T05:12:06.624Z,83.51
2018-01-21T05:13:13.476Z,83.55
2018-01-21T05:14:20.365Z,83.54
2018-01-21T05:15:27.292Z,83.55
2018-01-21T05:16:34.117Z,83.49
2018-01-21T05:17:41.064Z,83.46
2018-01-21T05:18:47.921Z,83.43
2018-01-21T05:19:54.808Z,83.43
2018-01-21T05:21:01.706Z,83.38
2018-01-21T05:22:08.626Z,83.40
2018-01-21T05:23:15.516Z,83.37
2018-01-21T05:24:22.452Z,83.34
2018-01-21T05:25:29.290Z,83.34
2018-01-21T05:26:36.185Z,83.32
2018-01-21T05:27:43.216Z,83.34
2018-01-21T05:28:50.093Z,83.32
2018-01-21T05:29:56.997Z,83.30
2018-01-21T05:31:03.917Z,83.29
2018-01-21T05:32:10.805Z,83.29
2018-01-21T05:33:17.760Z,83.26
2018-01-21T05:34:24.602Z,83.27
2018-01-21T05:35:31.505Z,83.29
2018-01-21T05:36:38.365Z,83.29
2018-01-21T05:37:45.177Z,83.27
2018-01-21T05:38:52.004Z,83.29
2018-01-21T05:39:58.885Z,83.26
2018-01-21T05:41:06.009Z,83.23
2018-01-21T05:42:12.946Z,83.22
2018-01-21T05:43:19.835Z,83.21
2018-01-21T05:44:26.686Z,83.21
2018-01-21T05:45:33.549Z,83.23
2018-01-21T05:46:40.428Z,83.18
2018-01-21T05:47:47.455Z,83.16
2018-01-21T05:48:54.335Z,83.12
2018-01-21T05:50:01.185Z,83.09
2018-01-21T05:51:08.094Z,83.08
2018-01-21T05:52:15.053Z,83.06
2018-01-21T05:53:21.877Z,83.02
2018-01-21T05:54:28.791Z,82.98
2018-01-21T05:55:35.700Z,82.93
2018-01-21T05:56:42.620Z,82.92
2018-01-21T05:57:49.720Z,82.93
2018-01-21T05:58:56.667Z,82.95
2018-01-21T06:00:03.577Z,82.92
2018-01-21T06:01:10.556Z,82.94
2018-01-21T06:02:17.404Z,82.93
2018-01-21T06:03:24.244Z,82.92
2018-01-21T06:04:31.349Z,82.88
2018-01-21T06:05:38.181Z,82.91
2018-01-21T06:06:45.029Z,82.84
2018-01-21T06:07:51.867Z,82.84
2018-01-21T06:08:58.759Z,82.82
2018-01-21T06:10:05.587Z,82.79
2018-01-21T06:11:12.596Z,82.77
2018-01-21T06:12:19.412Z,82.74
2018-01-21T06:13:26.227Z,82.71
2018-01-21T06:14:33.090Z,82.67
2018-01-21T06:15:40.232Z,82.60
2018-01-21T06:16:47.413Z,82.54
2018-01-21T06:17:54.204Z,82.49
2018-01-21T06:19:01.158Z,82.45
2018-01-21T06:20:08.195Z,82.43
2018-01-21T06:21:15.116Z,82.38
2018-01-21T06:22:21.985Z,82.37
2018-01-21T06:23:28.781Z,82.34
2018-01-21T06:24:35.616Z,82.33
2018-01-21T06:25:42.547Z,82.32
2018-01-21T06:26:49.375Z,82.32
2018-01-21T06:27:56.204Z,82.35
2018-01-21T06:29:03.067Z,82.32
2018-01-21T06:30:09.872Z,82.39
2018-01-21T06:31:16.843Z,82.37
2018-01-21T06:32:23.692Z,82.41
2018-01-21T06:33:30.636Z,82.45
2018-01-21T06:34:37.444Z,82.45
2018-01-21T06:35:44.302Z,82.46
2018-01-21T06:36:51.096Z,82.49
2018-01-21T06:37:57.959Z,82.46
2018-01-21T06:39:04.851Z,82.46
2018-01-21T06:40:11.676Z,82.45
2018-01-21T06:41:18.520Z,82.45
2018-01-21T06:42:25.395Z,82.44
2018-01-21T06:43:32.294Z,82.41
2018-01-21T06:44:39.121Z,82.40
2018-01-21T06:45:45.984Z,82.37
2018-01-21T06:46:52.780Z,82.37
2018-01-21T06:47:59.563Z,82.31
2018-01-21T06:49:06.340Z,82.28
2018-01-21T06:50:13.128Z,82.27
2018-01-21T06:51:20.014Z,82.26
2018-01-21T06:52:26.808Z,82.25
2018-01-21T06:53:33.620Z,82.21
2018-01-21T06:54:40.440Z,82.19
2018-01-21T06:55:47.198Z,82.16
2018-01-21T06:56:53.962Z,82.16
2018-01-21T06:58:00.787Z,82.17
2018-01-21T06:59:07.576Z,82.19
2018-01-21T07:00:14.336Z,82.15
2018-01-21T07:01:21.103Z,82.16
2018-01-21T07:02:27.855Z,82.11
2018-01-21T07:03:34.668Z,82.09
2018-01-21T07:04:41.426Z,82.09
2018-01-21T07:05:48.130Z,82.05
2018-01-21T07:06:54.908Z,82.01
2018-01-21T07:08:01.752Z,81.99
2018-01-21T07:09:08.492Z,82.00
2018-01-21T07:10:15.268Z,81.96
2018-01-21T07:11:21.994Z,81.96
2018-01-21T07:12:28.887Z,81.94
2018-01-21T07:13:35.648Z,81.87
2018-01-21T07:14:42.385Z,81.86
2018-01-21T07:15:49.397Z,81.82
2018-01-21T07:16:56.175Z,81.79
2018-01-21T07:18:02.909Z,81.79
2018-01-21T07:19:09.644Z,81.76
2018-01-21T07:20:16.425Z,81.74
2018-01-21T07:21:23.148Z,81.70
2018-01-21T07:22:29.920Z,81.71
2018-01-21T07:23:36.751Z,81.71
2018-01-21T07:24:43.545Z,81.67
2018-01-21T07:25:50.317Z,81.62
2018-01-21T07:26:57.056Z,81.60
2018-01-21T07:28:03.814Z,81.60
2018-01-21T07:29:10.772Z,81.58
2018-01-21T07:30:17.524Z,81.58
2018-01-21T07:31:24.273Z,81.57
2018-01-21T07:32:31.084Z,81.51
2018-01-21T07:33:37.847Z,81.50
2018-01-21T07:34:44.723Z,81.45
2018-01-21T07:35:51.531Z,81.45
2018-01-21T07:36:58.281Z,81.43
2018-01-21T07:38:05.066Z,81.40
2018-01-21T07:39:11.807Z,81.36
2018-01-21T07:40:18.654Z,81.34
2018-01-21T07:41:25.399Z,81.26
2018-01-21T07:42:32.176Z,81.24
2018-01-21T07:43:38.936Z,81.24
2018-01-21T07:44:45.843Z,81.21
2018-01-21T07:45:52.604Z,81.16
2018-01-21T07:46:59.384Z,81.16
2018-01-21T07:48:06.229Z,81.14
2018-01-21T07:49:13.000Z,81.14
2018-01-21T07:50:19.788Z,81.10
2018-01-21T07:51:26.537Z,81.09
2018-01-21T07:52:33.342Z,81.09
2018-01-21T07:53:40.128Z,81.11
2018-01-21T07:54:46.924Z,81.08
2018-01-21T07:55:53.800Z,81.04
2018-01-21T07:57:00.565Z,81.05
2018-01-21T07:58:07.335Z,81.06
2018-01-21T07:59:14.081Z,81.06
2018-01-21T08:00:21.028Z,81.00
2018-01-21T08:01:27.760Z,81.00
2018-01-21T08:02:34.520Z,81.00
2018-01-21T08:03:41.367Z,80.99
2018-01-21T08:04:48.134Z,80.95
2018-01-21T08:05:54.920Z,80.97
2018-01-21T08:07:01.631Z,81.02
2018-01-21T08:08:08.457Z,81.01
2018-01-21T08:09:15.191Z,80.99
2018-01-21T08:10:22.024Z,81.03
2018-01-21T08:11:28.892Z,81.01
2018-01-21T08:12:35.664Z,81.08
2018-01-21T08:13:42.430Z,81.07
2018-01-21T08:14:49.294Z,81.11
2018-01-21T08:15:56.184Z,81.11
2018-01-21T08:17:02.932Z,81.12
2018-01-21T08:18:09.788Z,81.15
2018-01-21T08:19:16.519Z,81.17
2018-01-21T08:20:23.297Z,81.20
2018-01-21T08:21:30.060Z,81.19
2018-01-21T08:22:36.867Z,81.23
2018-01-21T08:23:43.587Z,81.26
2018-01-21T08:24:50.360Z,81.29
2018-01-21T08:25:57.132Z,81.35
2018-01-21T08:27:03.929Z,81.37
2018-01-21T08:28:10.831Z,81.38
2018-01-21T08:29:17.544Z,81.43
2018-01-21T08:30:24.388Z,81.40
2018-01-21T08:31:31.153Z,81.48
2018-01-21T08:32:37.905Z,81.47
2018-01-21T08:33:44.668Z,81.52
2018-01-21T08:34:51.453Z,81.49
2018-01-21T08:35:58.264Z,81.51
2018-01-21T08:37:06.013Z,81.55
2018-01-21T08:38:16.523Z,81.58
2018-01-21T08:39:23.480Z,81.60
2018-01-21T08:40:34.665Z,81.59
2018-01-21T08:41:42.504Z,81.64
2018-01-21T08:42:49.333Z,81.65
2018-01-21T08:43:56.208Z,81.69
2018-01-21T08:45:03.224Z,81.73
2018-01-21T08:46:09.993Z,81.81
2018-01-21T08:47:16.753Z,81.85
2018-01-21T08:48:23.506Z,81.87
2018-01-21T08:49:30.256Z,81.88
2018-01-21T08:50:37.072Z,81.89
2018-01-21T08:51:43.817Z,81.91
2018-01-21T08:52:50.635Z,81.93
2018-01-21T08:53:57.513Z,81.95
2018-01-21T08:55:04.289Z,81.95
2018-01-21T08:56:11.109Z,81.97
2018-01-21T08:57:18.001Z,81.95
2018-01-21T08:58:24.792Z,82.00
2018-01-21T08:59:31.557Z,81.99
2018-01-21T09:00:39.471Z,82.04
2018-01-21T09:01:45.256Z,82.07
2018-01-21T09:02:52.061Z,82.09
2018-01-21T09:03:58.888Z,82.09
2018-01-21T09:05:05.665Z,82.13
2018-01-21T09:06:12.444Z,82.16
2018-01-21T09:07:19.191Z,82.17
2018-01-21T09:08:26.008Z,82.21
2018-01-21T09:09:32.775Z,82.24
2018-01-21T09:10:39.543Z,82.26
2018-01-21T09:11:46.403Z,82.24
2018-01-21T09:12:53.196Z,82.27
2018-01-21T09:14:00.016Z,82.33
2018-01-21T09:15:06.864Z,82.38
2018-01-21T09:16:13.728Z,82.36
2018-01-21T09:17:20.492Z,82.38
2018-01-21T09:18:27.388Z,82.43
2018-01-21T09:19:34.200Z,82.51
2018-01-21T09:20:41.078Z,82.54
2018-01-21T09:21:47.856Z,82.62
2018-01-21T09:22:54.623Z,82.62
2018-01-21T09:24:01.516Z,82.64
2018-01-21T09:25:08.336Z,82.68
2018-01-21T09:26:15.115Z,82.71
2018-01-21T09:27:21.927Z,82.76
2018-01-21T09:28:28.785Z,82.80
2018-01-21T09:29:35.591Z,82.84
2018-01-21T09:30:42.368Z,82.85
2018-01-21T09:31:49.168Z,82.89
2018-01-21T09:32:56.216Z,82.88
2018-01-21T09:34:03.040Z,82.96
2018-01-21T09:35:09.978Z,83.03
2018-01-21T09:36:16.752Z,83.09
2018-01-21T09:37:23.526Z,83.14
2018-01-21T09:38:30.392Z,83.19
2018-01-21T09:39:37.232Z,83.23
2018-01-21T09:40:44.053Z,83.35
2018-01-21T09:41:50.845Z,83.38
2018-01-21T09:42:57.725Z,83.46
2018-01-21T09:44:04.628Z,83.53
2018-01-21T09:45:11.528Z,83.56
2018-01-21T09:46:18.420Z,83.61
2018-01-21T09:47:25.258Z,83.66
2018-01-21T09:48:32.060Z,83.69
2018-01-21T09:49:38.747Z,83.74
2018-01-21T09:50:45.524Z,83.84
2018-01-21T09:51:52.374Z,83.92
2018-01-21T09:52:59.336Z,83.93
2018-01-21T09:54:06.221Z,83.96
2018-01-21T09:55:13.169Z,84.03
2018-01-21T09:56:20.037Z,84.05
2018-01-21T09:57:26.869Z,84.05
2018-01-21T09:58:33.797Z,84.16
2018-01-21T09:59:40.738Z,84.19
2018-01-21T10:00:47.596Z,84.21
2018-01-21T10:01:54.440Z,84.25
2018-01-21T10:03:01.287Z,84.31
2018-01-21T10:04:08.131Z,84.37
2018-01-21T10:05:15.085Z,84.44
2018-01-21T10:06:21.908Z,84.46
2018-01-21T10:07:28.760Z,84.50
2018-01-21T10:08:35.613Z,84.57
2018-01-21T10:09:42.468Z,84.63
2018-01-21T10:10:49.359Z,84.68
2018-01-21T10:11:56.309Z,84.75
2018-01-21T10:13:03.380Z,84.84
2018-01-21T10:14:10.238Z,84.89
2018-01-21T10:15:17.218Z,84.95
2018-01-21T10:16:24.119Z,85.00
2018-01-21T10:17:30.968Z,85.05
2018-01-21T10:18:37.813Z,85.12
2018-01-21T10:19:44.749Z,85.05
2018-01-21T10:20:51.612Z,85.08
2018-01-21T10:21:58.529Z,85.15
2018-01-21T10:23:05.392Z,85.18
2018-01-21T10:24:12.377Z,85.18
2018-01-21T10:25:19.215Z,85.20
2018-01-21T10:26:26.121Z,85.15
2018-01-21T10:27:32.935Z,85.02
2018-01-21T10:28:39.834Z,84.99
2018-01-21T10:29:46.703Z,85.04
2018-01-21T10:30:53.608Z,85.07
2018-01-21T10:32:00.419Z,85.09
2018-01-21T10:33:07.236Z,85.06
2018-01-21T10:34:14.069Z,85.07
2018-01-21T10:35:20.851Z,84.99
2018-01-21T10:36:27.684Z,84.89
2018-01-21T10:37:34.524Z,84.94
2018-01-21T10:38:41.336Z,84.99
2018-01-21T10:39:48.296Z,85.00
2018-01-21T10:40:55.147Z,85.00
2018-01-21T10:42:02.088Z,85.08
2018-01-21T10:43:08.924Z,85.06
2018-01-21T10:44:15.884Z,85.04
2018-01-21T10:45:22.768Z,85.05
2018-01-21T10:46:29.652Z,85.07
2018-01-21T10:47:36.475Z,85.05
2018-01-21T10:48:43.329Z,85.09
2018-01-21T10:49:50.188Z,84.96
2018-01-21T10:50:57.005Z,84.89
2018-01-21T10:52:03.899Z,84.93
2018-01-21T10:53:10.696Z,84.92
2018-01-21T10:54:17.536Z,84.90
2018-01-21T10:55:24.359Z,84.91
2018-01-21T10:56:31.216Z,84.87
2018-01-21T10:57:37.981Z,84.90
2018-01-21T10:58:44.792Z,84.89
2018-01-21T10:59:51.644Z,84.87
2018-01-21T11:00:58.511Z,84.83
2018-01-21T11:02:05.446Z,84.81
2018-01-21T11:03:12.340Z,84.84
2018-01-21T11:04:19.248Z,84.90
2018-01-21T11:05:26.133Z,84.88
2018-01-21T11:06:32.979Z,84.82
2018-01-21T11:07:39.759Z,84.81
2018-01-21T11:08:46.584Z,84.89
2018-01-21T11:09:53.368Z,84.79
2018-01-21T11:11:00.217Z,84.77
2018-01-21T11:12:07.074Z,84.76
2018-01-21T11:13:13.938Z,84.75
2018-01-21T11:14:20.889Z,84.85
2018-01-21T11:15:27.739Z,84.93
2018-01-21T11:16:34.687Z,84.96
2018-01-21T11:17:41.524Z,84.93
2018-01-21T11:18:48.320Z,84.97
2018-01-21T11:19:55.169Z,84.99
2018-01-21T11:21:02.001Z,85.01
2018-01-21T11:22:08.985Z,84.95
2018-01-21T11:23:15.916Z,84.92
2018-01-21T11:24:22.946Z,84.89
2018-01-21T11:25:29.817Z,84.85
2018-01-21T11:26:36.656Z,84.77
2018-01-21T11:27:43.585Z,84.70
2018-01-21T11:28:50.441Z,84.61
2018-01-21T11:29:57.244Z,84.66
2018-01-21T11:31:04.131Z,84.79
2018-01-21T11:32:11.029Z,84.77
2018-01-21T11:33:18.000Z,84.68
2018-01-21T11:34:24.799Z,84.71
2018-01-21T11:35:31.779Z,84.65
2018-01-21T11:36:38.643Z,84.62
2018-01-21T11:37:45.677Z,84.58
2018-01-21T11:38:52.507Z,84.44
2018-01-21T11:39:59.360Z,84.47
2018-01-21T11:41:06.188Z,84.53
2018-01-21T11:42:13.017Z,84.56
2018-01-21T11:43:19.917Z,84.59
2018-01-21T11:44:26.749Z,84.61
2018-01-21T11:45:33.633Z,84.52
2018-01-21T11:46:40.504Z,84.54
2018-01-21T11:47:47.548Z,84.49
2018-01-21T11:48:54.479Z,84.47
2018-01-21T11:50:01.329Z,84.43
2018-01-21T11:51:08.247Z,84.39
2018-01-21T11:52:15.095Z,84.35
2018-01-21T11:53:22.292Z,84.21
2018-01-21T11:54:28.661Z,84.25
2018-01-21T11:55:35.523Z,84.31
2018-01-21T11:56:42.404Z,84.33
2018-01-21T11:57:49.326Z,84.34
2018-01-21T11:58:56.194Z,84.31
2018-01-21T12:00:03.145Z,84.20
2018-01-21T12:01:10.023Z,84.17
2018-01-21T12:02:16.961Z,84.18
2018-01-21T12:03:23.768Z,84.09
2018-01-21T12:04:30.564Z,83.95
2018-01-21T12:05:37.419Z,83.81
2018-01-21T12:06:44.217Z,83.70
2018-01-21T12:07:51.044Z,83.66
2018-01-21T12:08:57.919Z,83.62
2018-01-21T12:10:04.707Z,83.48
2018-01-21T12:11:11.504Z,83.53
2018-01-21T12:12:18.445Z,83.45
2018-01-21T12:13:25.248Z,83.28
2018-01-21T12:14:32.187Z,83.24
2018-01-21T12:15:38.971Z,83.10
2018-01-21T12:16:45.887Z,83.08
2018-01-21T12:17:52.720Z,83.08
2018-01-21T12:18:59.525Z,83.01
2018-01-21T12:20:06.319Z,82.92
2018-01-21T12:21:13.080Z,82.88
2018-01-21T12:22:19.856Z,82.84
2018-01-21T12:23:26.621Z,82.71
2018-01-21T12:24:33.587Z,82.59
2018-01-21T12:25:40.365Z,82.55
2018-01-21T12:26:47.160Z,82.54
2018-01-21T12:27:54.029Z,82.54
2018-01-21T12:29:00.816Z,82.49
2018-01-21T12:30:07.625Z,82.34
2018-01-21T12:31:14.508Z,82.36
2018-01-21T12:32:21.297Z,82.33
2018-01-21T12:33:28.045Z,82.30
2018-01-21T12:34:34.832Z,82.27
2018-01-21T12:35:41.616Z,82.29
2018-01-21T12:36:48.373Z,82.13
2018-01-21T12:37:55.213Z,82.07
2018-01-21T12:39:02.084Z,82.01
2018-01-21T12:40:09.056Z,81.90
2018-01-21T12:41:15.892Z,81.82
2018-01-21T12:42:22.672Z,81.81
2018-01-21T12:43:29.440Z,81.87
2018-01-21T12:44:36.604Z,81.83
2018-01-21T12:45:43.588Z,81.76
2018-01-21T12:46:50.373Z,81.73
2018-01-21T12:47:57.112Z,81.76
2018-01-21T12:49:04.060Z,81.70
2018-01-21T12:50:10.921Z,81.68
2018-01-21T12:51:17.647Z,81.63
2018-01-21T12:52:24.493Z,81.68
2018-01-21T12:53:31.364Z,81.69
2018-01-21T12:54:38.131Z,81.67
2018-01-21T12:55:44.932Z,81.64
2018-01-21T12:56:51.760Z,81.68
2018-01-21T12:57:58.516Z,81.67
2018-01-21T12:59:05.384Z,81.58
2018-01-21T13:00:12.156Z,81.42
2018-01-21T13:01:18.900Z,81.33
2018-01-21T13:02:25.669Z,81.22
2018-01-21T13:03:32.514Z,81.06
2018-01-21T13:04:39.644Z,81.01
2018-01-21T13:05:46.383Z,80.99
2018-01-21T13:06:53.160Z,81.01
2018-01-21T13:07:59.889Z,81.08
2018-01-21T13:09:06.624Z,81.00
2018-01-21T13:10:13.408Z,80.76
2018-01-21T13:11:20.175Z,80.80
2018-01-21T13:12:27.036Z,80.89
2018-01-21T13:13:33.856Z,80.82
2018-01-21T13:14:40.601Z,80.87
2018-01-21T13:15:47.437Z,80.87
2018-01-21T13:16:54.152Z,80.92
2018-01-21T13:18:00.959Z,80.87
2018-01-21T13:19:07.729Z,80.60
2018-01-21T13:20:14.448Z,80.59
2018-01-21T13:21:21.219Z,80.63
2018-01-21T13:22:28.073Z,80.48
2018-01-21T13:23:34.793Z,80.36
2018-01-21T13:24:41.536Z,80.36
2018-01-21T13:25:48.260Z,80.46
2018-01-21T13:26:55.022Z,80.46
2018-01-21T13:28:01.852Z,80.39
2018-01-21T13:29:08.624Z,80.28
2018-01-21T13:30:15.404Z,80.31
2018-01-21T13:31:22.206Z,80.35
2018-01-21T13:32:29.024Z,80.33
2018-01-21T13:33:35.792Z,80.13
2018-01-21T13:34:42.549Z,80.11
2018-01-21T13:35:49.288Z,80.11
2018-01-21T13:36:56.088Z,80.26
2018-01-21T13:38:02.808Z,80.27
2018-01-21T13:39:09.669Z,80.21
2018-01-21T13:40:16.536Z,80.15
2018-01-21T13:41:23.265Z,80.03
2018-01-21T13:42:30.024Z,80.00
2018-01-21T13:43:36.767Z,79.90
2018-01-21T13:44:43.676Z,79.89
2018-01-21T13:45:50.432Z,79.69
2018-01-21T13:46:57.148Z,79.53
2018-01-21T13:48:03.896Z,79.54
2018-01-21T13:49:10.753Z,79.49
2018-01-21T13:50:17.499Z,79.53
2018-01-21T13:51:24.396Z,79.52
2018-01-21T13:52:31.216Z,79.60
2018-01-21T13:53:37.946Z,79.60
2018-01-21T13:54:44.715Z,79.58
2018-01-21T13:55:51.456Z,79.62
2018-01-21T13:56:58.330Z,79.47
2018-01-21T13:58:05.124Z,79.31
2018-01-21T13:59:11.852Z,79.20
2018-01-21T14:00:18.605Z,79.11
2018-01-21T14:01:25.450Z,79.15
2018-01-21T14:02:32.237Z,79.33
2018-01-21T14:03:39.012Z,79.41
2018-01-21T14:04:45.928Z,79.48
2018-01-21T14:05:52.728Z,79.41
2018-01-21T14:06:59.504Z,79.37
2018-01-21T14:08:06.266Z,79.36
2018-01-21T14:09:13.104Z,79.44
2018-01-21T14:10:19.902Z,79.42
2018-01-21T14:11:26.840Z,79.32
2018-01-21T14:12:33.600Z,79.29
2018-01-21T14:13:40.404Z,79.28
2018-01-21T14:14:47.317Z,79.27
2018-01-21T14:15:54.185Z,79.34
2018-01-21T14:17:01.072Z,79.29
2018-01-21T14:18:07.836Z,79.19
2018-01-21T14:19:14.613Z,79.25
2018-01-21T14:20:21.396Z,79.25
2018-01-21T14:21:28.209Z,79.18